Time;durP1;ratioP1;P1;durP2;ratioP2;P2;SDS_P1;SDS_P2;PMS_P1;PMS_P2;Temp;Humidity;BMP_temperature;BMP_pressure;BME280_temperature;BME280_humidity;BME280_pressure;Samples;Min_cycle;Max_cycle;Signal;HPM_P1;HPM_P2
2023/01/24 00:00:37;;;;;;;16.75;14.93;;;3.40;94.30;;;;;;5068348;28;20458;-89
2023/01/24 00:03:03;;;;;;;16.95;14.90;;;3.40;94.40;;;;;;5067854;28;20404;-90
2023/01/24 00:05:28;;;;;;;17.00;15.20;;;3.40;94.50;;;;;;5067491;28;20955;-91
2023/01/24 00:07:54;;;;;;;16.45;14.15;;;3.40;94.50;;;;;;5051438;28;20931;-90
2023/01/24 00:10:20;;;;;;;15.98;14.20;;;3.40;94.10;;;;;;5050783;28;20442;-89
2023/01/24 00:12:45;;;;;;;16.00;14.30;;;3.40;94.20;;;;;;5051618;28;20648;-89
2023/01/24 00:15:11;;;;;;;17.63;14.87;;;3.50;94.60;;;;;;5050198;28;20502;-89
2023/01/24 00:17:36;;;;;;;16.85;14.98;;;3.40;94.30;;;;;;5068713;28;20400;-89
2023/01/24 00:20:05;;;;;;;17.13;15.17;;;3.50;94.50;;;;;;5051077;28;20403;-88
2023/01/24 00:22:31;;;;;;;17.38;15.57;;;3.50;94.90;;;;;;5067979;28;20561;-90
2023/01/24 00:24:56;;;;;;;17.88;15.95;;;3.50;95.10;;;;;;5050401;28;20518;-88
2023/01/24 00:27:22;;;;;;;17.67;15.75;;;3.50;94.60;;;;;;5067296;28;20558;-89
2023/01/24 00:29:48;;;;;;;16.73;14.90;;;3.50;94.70;;;;;;5067870;28;20419;-90
2023/01/24 00:32:13;;;;;;;17.07;15.07;;;3.50;94.50;;;;;;5066535;28;21156;-89
2023/01/24 00:34:39;;;;;;;18.00;16.10;;;3.50;94.40;;;;;;5068009;28;20407;-89
2023/01/24 00:37:04;;;;;;;16.87;15.07;;;3.50;94.50;;;;;;5066151;28;20403;-89
2023/01/24 00:39:30;;;;;;;16.90;14.93;;;3.50;94.50;;;;;;5067701;28;20419;-88
2023/01/24 00:41:56;;;;;;;16.88;15.07;;;3.50;94.50;;;;;;5066711;28;20422;-88
2023/01/24 00:44:21;;;;;;;19.58;17.00;;;3.50;94.40;;;;;;5066982;28;20762;-89
2023/01/24 00:46:50;;;;;;;17.23;15.40;;;3.50;94.50;;;;;;5066983;28;20404;-90
2023/01/24 00:49:15;;;;;;;17.40;15.35;;;3.50;94.40;;;;;;5049109;28;20407;-89
2023/01/24 00:51:41;;;;;;;17.73;15.77;;;3.50;94.20;;;;;;5067377;28;20493;-88
2023/01/24 00:54:07;;;;;;;18.63;16.23;;;3.40;94.50;;;;;;5066148;28;20418;-91
2023/01/24 00:56:32;;;;;;;19.67;17.30;;;3.40;94.90;;;;;;5067669;28;20770;-88
2023/01/24 00:58:58;;;;;;;18.73;15.67;;;3.50;94.90;;;;;;5049784;28;20416;-89
2023/01/24 01:01:23;;;;;;;21.33;17.10;;;3.50;94.50;;;;;;5067007;28;20392;-89
2023/01/24 01:03:49;;;;;;;19.07;16.93;;;3.50;94.60;;;;;;5066545;28;20444;-88
2023/01/24 01:06:15;;;;;;;19.83;17.33;;;3.50;94.80;;;;;;5066615;28;21322;-90
2023/01/24 01:08:41;;;;;;;19.30;16.95;;;3.40;94.80;;;;;;5067157;28;20414;-89
2023/01/24 01:11:08;;;;;;;20.13;17.02;;;3.50;94.80;;;;;;5066250;28;20406;-90
2023/01/24 01:13:33;;;;;;;21.63;17.67;;;3.40;94.90;;;;;;5066849;28;20762;-88
2023/01/24 01:16:09;;;;;;;19.13;16.30;;;3.40;95.20;;;;;;5066069;28;20415;-89
2023/01/24 01:18:35;;;;;;;19.20;16.70;;;3.50;94.90;;;;;;5067092;28;20415;-91
2023/01/24 01:21:01;;;;;;;21.67;18.02;;;3.70;95.00;;;;;;5066430;28;20439;-89
2023/01/24 01:23:27;;;;;;;18.13;16.23;;;3.50;95.40;;;;;;5066837;28;20512;-91
2023/01/24 01:25:52;;;;;;;20.05;17.08;;;3.50;95.10;;;;;;5066870;28;20418;-89
2023/01/24 01:28:18;;;;;;;20.67;17.77;;;3.50;94.90;;;;;;5066210;28;20459;-89
2023/01/24 01:30:49;;;;;;;20.47;16.73;;;3.50;95.20;;;;;;5050439;28;20449;-90
2023/01/24 01:33:14;;;;;;;19.77;17.20;;;3.50;95.10;;;;;;5065708;28;20411;-91
2023/01/24 01:35:40;;;;;;;20.35;17.08;;;3.50;95.00;;;;;;5067247;28;20817;-89
2023/01/24 01:38:06;;;;;;;18.95;16.80;;;3.40;95.10;;;;;;5065815;28;20417;-89
2023/01/24 01:40:31;;;;;;;19.85;17.38;;;3.50;94.80;;;;;;5066881;28;20487;-90
2023/01/24 01:42:57;;;;;;;21.83;18.40;;;3.40;95.20;;;;;;5066496;28;20458;-90
2023/01/24 01:45:43;;;;;;;20.37;18.17;;;3.40;95.60;;;;;;5065746;28;20436;-89
2023/01/24 01:48:28;;;;;;;20.73;17.50;;;3.40;95.60;;;;;;5066783;28;20613;-89
2023/01/24 01:51:15;;;;;;;20.07;17.20;;;3.40;95.20;;;;;;5065731;28;20873;-89
2023/01/24 01:53:52;;;;;;;21.60;17.55;;;3.40;95.30;;;;;;5066157;28;20415;-89
2023/01/24 01:56:47;;;;;;;20.58;17.05;;;3.50;95.30;;;;;;5063631;28;20416;-89
2023/01/24 01:59:21;;;;;;;20.30;17.08;;;3.50;95.20;;;;;;5065907;28;20412;-90
2023/01/24 02:01:49;;;;;;;21.52;18.05;;;3.50;95.40;;;;;;5070469;28;20481;-90
2023/01/24 02:04:18;;;;;;;18.70;16.60;;;3.40;95.50;;;;;;5069462;28;20442;-88
2023/01/24 02:06:53;;;;;;;17.27;15.13;;;3.50;95.20;;;;;;5070105;28;20419;-90
2023/01/24 02:09:26;;;;;;;18.02;15.07;;;3.50;94.70;;;;;;5070525;28;20419;-88
2023/01/24 02:11:54;;;;;;;19.20;16.50;;;3.50;94.60;;;;;;5069572;28;20851;-89
2023/01/24 02:17:06;;;;;;;21.63;18.23;;;3.50;95.20;;;;;;5069539;28;20395;-88
2023/01/24 02:19:42;;;;;;;21.57;18.03;;;3.50;95.70;;;;;;5070618;28;21013;-90
2023/01/24 02:22:28;;;;;;;20.77;18.20;;;3.50;95.10;;;;;;5070195;28;20419;-90
2023/01/24 02:25:32;;;;;;;20.27;17.53;;;3.60;95.10;;;;;;5062083;28;20434;-91
2023/01/24 02:27:58;;;;;;;21.65;17.50;;;3.50;95.10;;;;;;5070540;28;20472;-91
2023/01/24 02:30:24;;;;;;;21.60;18.33;;;3.60;95.10;;;;;;5070074;28;20410;-89
2023/01/24 02:32:50;;;;;;;23.35;18.77;;;3.50;95.20;;;;;;5069683;28;20404;-90
2023/01/24 02:35:28;;;;;;;22.85;18.83;;;3.50;95.20;;;;;;5069812;28;20403;-90
2023/01/24 02:37:55;;;;;;;23.45;19.20;;;3.60;95.10;;;;;;5069401;28;20493;-90
2023/01/24 02:40:21;;;;;;;20.30;17.13;;;3.60;95.30;;;;;;5070064;28;20407;-90
2023/01/24 02:42:47;;;;;;;22.25;18.38;;;3.60;95.10;;;;;;5068658;28;20423;-89
2023/01/24 02:45:20;;;;;;;19.87;17.53;;;3.60;95.00;;;;;;5070263;28;20661;-89
2023/01/24 02:47:48;;;;;;;20.15;17.33;;;3.50;95.30;;;;;;5069325;28;20502;-89
2023/01/24 02:50:19;;;;;;;21.23;18.17;;;3.50;95.10;;;;;;5069061;28;20431;-90
2023/01/24 02:55:33;;;;;;;23.43;19.53;;;3.60;95.10;;;;;;5068994;28;20427;-89
2023/01/24 02:58:08;;;;;;;20.60;17.92;;;3.50;95.10;;;;;;5069952;28;20410;-89
2023/01/24 03:00:40;;;;;;;20.65;17.00;;;3.60;95.20;;;;;;5069484;28;20465;-90
2023/01/24 03:03:07;;;;;;;21.33;18.15;;;3.60;94.90;;;;;;5068685;28;20422;-89
2023/01/24 03:06:18;;;;;;;21.15;18.00;;;3.60;95.00;;;;;;5069362;28;20431;-89
2023/01/24 03:08:19;;;;;;;22.40;18.43;;;3.60;94.90;;;;;;5061443;28;20403;-90
2023/01/24 03:10:46;;;;;;;22.60;18.23;;;3.60;95.10;;;;;;5069803;28;20928;-89
2023/01/24 03:35:08;;;;;;;21.38;18.35;;;3.60;94.90;;;;;;5068256;28;20408;-89
2023/01/24 03:40:18;;;;;;;20.40;17.48;;;3.80;95.00;;;;;;5068353;28;20408;-89
2023/01/24 03:42:49;;;;;;;23.17;19.10;;;3.60;95.00;;;;;;5068374;28;20422;-89
2023/01/24 03:45:16;;;;;;;22.73;18.77;;;3.60;95.20;;;;;;5069000;28;20442;-90
2023/01/24 03:47:54;;;;;;;22.00;18.73;;;3.60;95.20;;;;;;5068131;28;20456;-89
2023/01/24 03:53:07;;;;;;;17.10;15.15;;;3.60;95.30;;;;;;5068185;28;20407;-88
2023/01/24 03:55:32;;;;;;;18.40;15.88;;;3.60;94.50;;;;;;5068027;28;20762;-89
2023/01/24 03:57:58;;;;;;;18.65;16.20;;;3.60;94.40;;;;;;5068432;28;20494;-89
2023/01/24 04:00:24;;;;;;;20.52;17.52;;;3.60;94.50;;;;;;5067708;28;20412;-88
2023/01/24 04:02:49;;;;;;;19.80;17.70;;;3.60;94.70;;;;;;5068169;28;20491;-88
2023/01/24 04:05:15;;;;;;;20.07;17.30;;;3.60;94.80;;;;;;5067201;28;20485;-88
2023/01/24 04:07:41;;;;;;;23.83;19.50;;;3.60;94.80;;;;;;5068413;28;20395;-89
2023/01/24 04:10:08;;;;;;;21.73;18.38;;;3.60;95.10;;;;;;5067727;28;20814;-89
2023/01/24 04:12:34;;;;;;;22.37;18.50;;;3.60;94.90;;;;;;5067215;28;20410;-90
2023/01/24 04:14:59;;;;;;;21.47;17.80;;;3.90;95.00;;;;;;5050781;28;20762;-88
2023/01/24 04:17:25;;;;;;;21.85;18.05;;;3.60;94.80;;;;;;5067430;28;20450;-89
2023/01/24 04:19:51;;;;;;;21.50;18.15;;;3.60;95.00;;;;;;5068347;28;20407;-90
2023/01/24 04:22:17;;;;;;;22.23;18.15;;;3.60;95.00;;;;;;5067057;28;20416;-89
2023/01/24 04:24:44;;;;;;;20.98;18.45;;;3.70;95.10;;;;;;5067873;28;20945;-89
2023/01/24 04:27:10;;;;;;;21.58;17.67;;;3.60;95.30;;;;;;5050892;28;20447;-89
2023/01/24 04:29:36;;;;;;;19.83;17.37;;;3.80;95.00;;;;;;5067505;28;20418;-88
2023/01/24 04:32:01;;;;;;;21.67;18.57;;;3.60;95.10;;;;;;5067553;28;20762;-89
2023/01/24 04:34:27;;;;;;;21.35;18.30;;;3.60;95.00;;;;;;5066732;28;20438;-90
2023/01/24 04:36:53;;;;;;;19.98;17.65;;;3.60;95.20;;;;;;5067235;28;20964;-89
2023/01/24 04:39:19;;;;;;;21.00;17.73;;;3.70;95.20;;;;;;5066918;28;20404;-87
2023/01/24 04:41:45;;;;;;;21.97;18.80;;;3.70;94.90;;;;;;5067588;28;20434;-89
2023/01/24 04:44:10;;;;;;;22.13;18.60;;;3.70;95.20;;;;;;5066391;28;20466;-88
2023/01/24 04:46:36;;;;;;;21.63;18.40;;;3.70;95.10;;;;;;5067835;28;20443;-90
2023/01/24 04:49:02;;;;;;;20.27;17.00;;;3.70;95.10;;;;;;5066944;28;20914;-90
2023/01/24 04:51:27;;;;;;;18.87;16.83;;;3.60;95.00;;;;;;5066732;28;20498;-88
2023/01/24 04:53:53;;;;;;;17.63;15.07;;;3.60;95.10;;;;;;5066982;28;20940;-88
2023/01/24 04:56:19;;;;;;;16.10;14.40;;;3.60;94.50;;;;;;5066033;28;20445;-89
2023/01/24 04:58:44;;;;;;;15.33;13.73;;;3.60;94.30;;;;;;5066840;28;20458;-88
2023/01/24 05:01:10;;;;;;;15.93;14.20;;;3.60;94.20;;;;;;5066221;28;20415;-88
2023/01/24 05:03:35;;;;;;;14.90;13.30;;;3.70;94.10;;;;;;5066800;28;20431;-89
2023/01/24 05:06:01;;;;;;;15.40;13.80;;;3.60;93.70;;;;;;5066456;28;20902;-88
2023/01/24 05:08:27;;;;;;;16.10;14.40;;;3.60;93.80;;;;;;5066573;28;20451;-88
2023/01/24 05:10:52;;;;;;;16.10;14.40;;;3.60;93.70;;;;;;5066255;28;20922;-90
2023/01/24 05:13:18;;;;;;;15.77;14.07;;;3.70;93.70;;;;;;5066601;28;20415;-90
2023/01/24 05:15:48;;;;;;;15.95;14.25;;;3.60;93.70;;;;;;5066446;28;20399;-88
2023/01/24 05:18:13;;;;;;;16.38;14.40;;;3.70;93.80;;;;;;5065775;28;20975;-88
2023/01/24 05:20:39;;;;;;;17.45;15.65;;;3.60;93.90;;;;;;5066794;28;20412;-89
2023/01/24 05:23:05;;;;;;;16.90;15.07;;;3.70;94.20;;;;;;5065431;28;20399;-88
2023/01/24 05:25:30;;;;;;;16.77;14.98;;;3.70;93.90;;;;;;5066431;28;20427;-89
2023/01/24 05:27:56;;;;;;;17.23;15.23;;;3.70;94.00;;;;;;5065962;28;20411;-89
2023/01/24 05:30:21;;;;;;;16.93;15.07;;;3.90;94.10;;;;;;5065831;28;21023;-89
2023/01/24 05:32:47;;;;;;;16.30;14.60;;;3.60;94.10;;;;;;5066038;28;21114;-90
2023/01/24 05:35:13;;;;;;;15.70;14.00;;;3.60;93.70;;;;;;5064912;28;20506;-89
2023/01/24 05:37:39;;;;;;;16.13;14.38;;;3.60;93.60;;;;;;5066319;28;20465;-88
2023/01/24 05:40:06;;;;;;;16.15;14.45;;;3.60;93.20;;;;;;5065393;28;20419;-88
2023/01/24 05:42:31;;;;;;;16.95;14.75;;;3.60;93.50;;;;;;5066103;28;20416;-89
2023/01/24 05:44:57;;;;;;;16.70;14.90;;;3.60;93.40;;;;;;5064163;28;20424;-89
2023/01/24 05:47:23;;;;;;;17.80;15.90;;;3.60;93.00;;;;;;5048960;28;20403;-89
2023/01/24 05:49:49;;;;;;;16.67;14.98;;;3.70;93.10;;;;;;5048659;28;20411;-88
2023/01/24 05:52:20;;;;;;;17.52;15.63;;;3.60;93.20;;;;;;5049099;28;20419;-88
2023/01/24 05:54:47;;;;;;;18.30;16.30;;;3.60;93.20;;;;;;5066563;28;20416;-88
2023/01/24 05:57:12;;;;;;;18.55;16.67;;;3.60;93.40;;;;;;5064710;28;20451;-89
2023/01/24 05:59:38;;;;;;;18.42;16.52;;;3.60;93.10;;;;;;5045850;28;20848;-90
2023/01/24 06:02:04;;;;;;;19.07;17.00;;;3.60;93.30;;;;;;5047443;28;20412;-90
2023/01/24 06:04:29;;;;;;;18.57;16.43;;;3.60;93.50;;;;;;5048896;28;20603;-88
2023/01/24 06:06:55;;;;;;;17.98;16.08;;;3.60;93.70;;;;;;5048542;28;20407;-88
2023/01/24 06:09:21;;;;;;;19.57;17.40;;;3.60;93.60;;;;;;5066001;28;21092;-90
2023/01/24 06:11:47;;;;;;;20.10;17.40;;;3.60;93.70;;;;;;5048766;28;20404;-88
2023/01/24 06:14:12;;;;;;;19.77;17.67;;;3.60;93.90;;;;;;5065068;28;20419;-89
2023/01/24 06:16:39;;;;;;;19.80;17.33;;;3.60;93.70;;;;;;5065960;28;20411;-88
2023/01/24 06:19:05;;;;;;;20.50;17.60;;;3.60;93.70;;;;;;5064916;28;20545;-89
2023/01/24 06:21:44;;;;;;;19.85;17.75;;;3.60;93.60;;;;;;5065672;28;20622;-89
2023/01/24 06:24:22;;;;;;;23.42;20.27;;;3.60;93.90;;;;;;5065168;28;20446;-89
2023/01/24 06:26:49;;;;;;;22.63;20.13;;;3.60;93.70;;;;;;5065703;28;20391;-89
2023/01/24 06:29:16;;;;;;;22.35;19.70;;;3.50;93.70;;;;;;5065538;28;20423;-89
2023/01/24 06:32:10;;;;;;;22.45;20.05;;;3.60;93.50;;;;;;5065413;28;20419;-90
2023/01/24 06:35:00;;;;;;;23.15;20.63;;;3.50;93.50;;;;;;5064953;28;20408;-88
2023/01/24 06:37:46;;;;;;;22.97;20.53;;;3.50;93.40;;;;;;5049011;28;20479;-89
2023/01/24 06:40:14;;;;;;;22.85;20.38;;;3.50;93.70;;;;;;5048893;28;20422;-89
2023/01/24 06:42:40;;;;;;;22.80;20.40;;;3.50;93.60;;;;;;5066190;28;20477;-90
2023/01/24 06:45:07;;;;;;;23.67;21.17;;;3.50;93.30;;;;;;5064606;28;20458;-89
2023/01/24 06:47:33;;;;;;;25.08;22.10;;;3.50;93.40;;;;;;5052520;28;20457;-90
2023/01/24 06:49:58;;;;;;;24.43;21.67;;;3.50;93.80;;;;;;5052166;28;20415;-88
2023/01/24 06:52:24;;;;;;;23.90;21.30;;;3.50;93.80;;;;;;5052847;28;20403;-89
2023/01/24 06:54:50;;;;;;;25.35;22.23;;;3.50;93.80;;;;;;5069409;28;20449;-89
2023/01/24 06:57:15;;;;;;;25.65;22.38;;;3.50;93.80;;;;;;5069179;28;20400;-89
2023/01/24 06:59:41;;;;;;;26.15;22.95;;;3.50;93.80;;;;;;5069172;28;20408;-89
2023/01/24 07:02:09;;;;;;;25.63;22.83;;;3.70;94.00;;;;;;5051790;28;20492;-88
2023/01/24 07:04:36;;;;;;;25.38;22.05;;;3.50;93.90;;;;;;5068939;28;20481;-87
2023/01/24 07:07:02;;;;;;;25.57;22.07;;;3.60;94.00;;;;;;5067684;28;20775;-88
2023/01/24 07:09:27;;;;;;;25.48;22.70;;;3.50;94.00;;;;;;5068575;28;20411;-88
2023/01/24 07:11:57;;;;;;;25.40;22.60;;;3.50;94.20;;;;;;5052124;28;20416;-88
2023/01/24 07:14:23;;;;;;;25.98;23.02;;;3.50;93.80;;;;;;5052276;28;20913;-88
2023/01/24 07:16:50;;;;;;;26.27;23.23;;;3.50;94.00;;;;;;5086376;28;20443;-88
2023/01/24 07:19:19;;;;;;;26.42;23.63;;;3.40;93.80;;;;;;5068481;28;20498;-89
2023/01/24 07:21:45;;;;;;;28.83;24.90;;;3.40;93.80;;;;;;5069228;28;20404;-88
2023/01/24 07:24:16;;;;;;;26.80;23.83;;;3.40;93.80;;;;;;5067602;28;20435;-88
2023/01/24 07:26:43;;;;;;;27.38;24.40;;;3.40;93.80;;;;;;5052075;28;20412;-89
2023/01/24 07:29:09;;;;;;;28.80;25.55;;;3.40;94.10;;;;;;5051060;28;20412;-89
2023/01/24 07:31:35;;;;;;;29.83;25.08;;;3.40;94.00;;;;;;5068389;28;20419;-89
2023/01/24 07:34:01;;;;;;;28.63;24.98;;;3.40;94.00;;;;;;5068280;28;20918;-88
2023/01/24 07:36:26;;;;;;;29.75;25.88;;;3.40;94.00;;;;;;5068191;28;20550;-90
2023/01/24 07:38:56;;;;;;;28.45;24.90;;;3.40;94.00;;;;;;5068395;28;20457;-86
2023/01/24 07:41:22;;;;;;;29.48;25.33;;;3.40;93.90;;;;;;5067442;28;20404;-87
2023/01/24 07:43:48;;;;;;;29.80;26.60;;;3.40;94.00;;;;;;5051572;28;20431;-89
2023/01/24 07:46:13;;;;;;;29.30;25.50;;;3.40;94.10;;;;;;5050702;28;20431;-87
2023/01/24 07:48:39;;;;;;;30.07;25.87;;;3.40;94.40;;;;;;5085047;28;20408;-89
2023/01/24 07:51:05;;;;;;;31.07;26.10;;;3.40;94.30;;;;;;5050824;28;20416;-88
2023/01/24 07:53:31;;;;;;;29.45;26.23;;;3.40;94.20;;;;;;5050625;28;20794;-89
2023/01/24 07:56:00;;;;;;;32.15;27.27;;;3.40;94.30;;;;;;5051213;28;20511;-88
2023/01/24 07:58:26;;;;;;;28.65;25.33;;;3.40;94.30;;;;;;5049840;28;20415;-88
2023/01/24 08:00:51;;;;;;;28.55;24.88;;;3.40;94.10;;;;;;5051516;28;20415;-88
2023/01/24 08:03:17;;;;;;;28.93;25.00;;;3.40;93.90;;;;;;5050265;28;20490;-88
2023/01/24 08:05:43;;;;;;;28.57;24.37;;;3.40;93.90;;;;;;5067230;28;20559;-89
2023/01/24 08:08:09;;;;;;;27.67;24.23;;;3.40;94.00;;;;;;5050532;28;20412;-88
2023/01/24 08:10:35;;;;;;;28.85;23.85;;;3.40;94.00;;;;;;5051005;28;20416;-89
2023/01/24 08:13:00;;;;;;;27.58;24.20;;;3.40;93.90;;;;;;5050629;28;20451;-88
2023/01/24 08:15:26;;;;;;;27.90;23.75;;;3.40;93.90;;;;;;5050226;28;20418;-89
2023/01/24 08:17:52;;;;;;;29.83;25.00;;;3.30;93.70;;;;;;5067181;28;20412;-89
2023/01/24 08:20:18;;;;;;;30.15;26.02;;;3.30;94.10;;;;;;5065946;28;20817;-88
2023/01/24 08:22:44;;;;;;;30.85;26.23;;;3.30;94.10;;;;;;5067856;28;20403;-87
2023/01/24 08:25:09;;;;;;;30.50;26.83;;;3.40;94.20;;;;;;5049440;28;20850;-88
2023/01/24 08:27:39;;;;;;;29.73;26.07;;;3.40;94.10;;;;;;5050211;28;20493;-89
2023/01/24 08:30:05;;;;;;;32.75;27.17;;;3.40;94.10;;;;;;5050003;28;20408;-88
2023/01/24 08:32:31;;;;;;;31.60;27.13;;;3.40;94.20;;;;;;5049576;28;20443;-87
2023/01/24 08:34:57;;;;;;;31.35;27.50;;;3.40;94.20;;;;;;5050114;28;20464;-88
2023/01/24 08:37:23;;;;;;;32.13;27.90;;;3.30;94.10;;;;;;5066032;28;20415;-88
2023/01/24 08:39:49;;;;;;;33.15;28.42;;;3.40;94.20;;;;;;5050612;28;20419;-88
2023/01/24 08:42:15;;;;;;;32.42;28.27;;;3.40;94.10;;;;;;5082752;28;20404;-87
2023/01/24 08:44:41;;;;;;;31.73;27.88;;;3.40;94.10;;;;;;5066582;28;20419;-88
2023/01/24 08:47:07;;;;;;;31.83;28.33;;;3.50;94.20;;;;;;5049328;28;20421;-87
2023/01/24 08:49:32;;;;;;;32.63;28.33;;;3.40;94.40;;;;;;5049411;28;20415;-89
2023/01/24 08:51:58;;;;;;;34.25;30.40;;;3.50;94.30;;;;;;5066356;28;20496;-89
2023/01/24 08:54:28;;;;;;;33.55;29.65;;;3.40;94.50;;;;;;5049269;28;20403;-88
2023/01/24 08:56:54;;;;;;;33.78;28.92;;;3.50;94.60;;;;;;5049785;28;20423;-89
2023/01/24 08:59:20;;;;;;;32.20;28.63;;;3.50;94.60;;;;;;5048857;28;20407;-89
2023/01/24 09:01:46;;;;;;;31.07;27.20;;;3.50;94.70;;;;;;5067290;28;20439;-88
2023/01/24 09:04:12;;;;;;;28.33;25.30;;;3.50;94.50;;;;;;5065885;28;20525;-86
2023/01/24 09:06:37;;;;;;;28.48;25.38;;;3.50;94.20;;;;;;5049769;28;20458;-90
2023/01/24 09:09:03;;;;;;;27.80;24.80;;;3.50;94.30;;;;;;5082860;28;20800;-88
2023/01/24 09:11:30;;;;;;;27.00;24.13;;;3.50;94.10;;;;;;5081738;28;20404;-89
2023/01/24 09:13:56;;;;;;;24.65;22.05;;;3.50;94.00;;;;;;5049529;28;20407;-87
2023/01/24 09:16:22;;;;;;;24.92;22.33;;;3.60;93.80;;;;;;5049010;28;20418;-89
2023/01/24 09:18:50;;;;;;;28.23;21.80;;;3.60;93.70;;;;;;5049302;28;20487;-87
2023/01/24 09:21:17;;;;;;;24.02;21.52;;;3.60;93.60;;;;;;5048760;28;20407;-89
2023/01/24 09:23:43;;;;;;;23.63;21.20;;;3.60;93.60;;;;;;5066211;28;20403;-88
2023/01/24 09:26:09;;;;;;;23.85;21.35;;;3.60;93.70;;;;;;5065575;28;20447;-87
2023/01/24 09:28:34;;;;;;;23.67;21.20;;;3.60;93.70;;;;;;5065538;28;20455;-88
2023/01/24 09:31:01;;;;;;;23.13;20.70;;;3.60;93.70;;;;;;5049399;28;20427;-87
2023/01/24 09:33:27;;;;;;;22.92;20.40;;;3.60;93.50;;;;;;5048318;28;20783;-88
2023/01/24 09:36:02;;;;;;;24.00;21.40;;;3.60;93.60;;;;;;5049224;28;20751;-88
2023/01/24 09:38:29;;;;;;;23.02;20.67;;;3.80;93.70;;;;;;5048229;28;20426;-89
2023/01/24 09:41:26;;;;;;;23.58;21.08;;;3.60;93.70;;;;;;5049478;28;20411;-88
2023/01/24 09:44:07;;;;;;;23.85;21.35;;;3.60;93.80;;;;;;5082601;28;20443;-88
2023/01/24 09:46:42;;;;;;;24.77;22.10;;;3.60;93.70;;;;;;5065386;28;20427;-88
2023/01/24 09:49:10;;;;;;;25.42;22.77;;;3.70;93.60;;;;;;5049667;28;20419;-88
2023/01/24 09:51:42;;;;;;;24.05;21.55;;;3.70;94.00;;;;;;5064769;28;20990;-89
2023/01/24 09:54:25;;;;;;;24.77;21.50;;;3.70;93.60;;;;;;5065810;28;20423;-89
2023/01/24 09:56:51;;;;;;;23.83;21.33;;;3.80;93.70;;;;;;5048567;28;20404;-88
2023/01/24 09:59:41;;;;;;;24.10;21.60;;;3.80;93.40;;;;;;5065217;28;20404;-88
2023/01/24 10:02:21;;;;;;;24.33;21.92;;;3.80;93.50;;;;;;5066077;28;20432;-89
2023/01/24 10:04:48;;;;;;;25.30;22.67;;;3.80;93.50;;;;;;5064749;28;20448;-88
2023/01/24 10:07:44;;;;;;;25.20;22.60;;;3.90;93.80;;;;;;5049186;28;20490;-88
2023/01/24 10:10:41;;;;;;;24.85;22.27;;;4.10;93.90;;;;;;5048917;28;20466;-88
2023/01/24 10:13:45;;;;;;;25.60;22.90;;;3.90;93.40;;;;;;5064690;28;20431;-87
2023/01/24 10:16:37;;;;;;;23.95;21.45;;;3.90;93.50;;;;;;5065603;28;20419;-89
2023/01/24 10:19:22;;;;;;;23.13;20.77;;;3.90;93.40;;;;;;5066404;28;20495;-88
2023/01/24 10:22:08;;;;;;;24.43;21.83;;;3.90;93.20;;;;;;5067360;28;20790;-89
2023/01/24 10:24:39;;;;;;;23.88;21.38;;;3.90;93.20;;;;;;5070332;28;20435;-88
2023/01/24 10:27:27;;;;;;;24.92;22.35;;;3.90;93.00;;;;;;5069566;28;20410;-88
2023/01/24 10:29:59;;;;;;;24.70;22.10;;;3.90;93.00;;;;;;5068569;28;20419;-88
2023/01/24 10:32:34;;;;;;;26.70;23.83;;;3.90;93.20;;;;;;5069376;28;20815;-88
2023/01/24 10:35:22;;;;;;;24.63;22.13;;;3.80;93.20;;;;;;5067865;28;20411;-89
2023/01/24 10:37:55;;;;;;;25.70;23.00;;;3.80;93.10;;;;;;5068403;28;20439;-89
2023/01/24 10:40:24;;;;;;;26.20;23.55;;;3.90;93.40;;;;;;5068869;28;21019;-89
2023/01/24 10:42:50;;;;;;;25.17;22.58;;;3.80;93.40;;;;;;5068399;28;20490;-89
2023/01/24 10:45:35;;;;;;;25.10;22.50;;;3.80;93.60;;;;;;5069944;28;20485;-88
2023/01/24 10:48:11;;;;;;;25.80;23.15;;;3.80;93.40;;;;;;5069118;28;20426;-88
2023/01/24 10:50:44;;;;;;;26.87;24.07;;;3.80;93.60;;;;;;5069481;28;20423;-89
2023/01/24 10:53:23;;;;;;;25.67;23.05;;;3.90;93.50;;;;;;5068824;28;20415;-89
2023/01/24 10:55:56;;;;;;;26.15;23.52;;;3.90;93.60;;;;;;5069191;28;20832;-90
2023/01/24 10:58:34;;;;;;;26.58;23.85;;;3.90;93.40;;;;;;5068356;28;20427;-89
2023/01/24 11:01:17;;;;;;;26.25;23.58;;;3.90;93.40;;;;;;5052059;28;20419;-89
2023/01/24 11:03:44;;;;;;;26.98;24.20;;;4.00;93.10;;;;;;5069307;28;20415;-90
2023/01/24 11:06:32;;;;;;;27.15;24.35;;;4.00;93.30;;;;;;5052379;28;20415;-90
2023/01/24 11:09:14;;;;;;;28.08;25.30;;;4.00;93.20;;;;;;5067921;28;20825;-89
2023/01/24 11:11:52;;;;;;;26.02;23.33;;;4.00;93.50;;;;;;5069283;28;20851;-89
2023/01/24 11:14:30;;;;;;;24.98;22.48;;;4.10;93.00;;;;;;5051686;28;20399;-88
2023/01/24 11:16:58;;;;;;;25.67;23.08;;;4.10;92.90;;;;;;5051498;28;20965;-89
2023/01/24 11:19:30;;;;;;;26.38;23.70;;;4.10;93.20;;;;;;5051375;28;20534;-86
2023/01/24 11:22:20;;;;;;;26.95;24.15;;;4.10;93.20;;;;;;5067415;28;21172;-89
2023/01/24 11:24:47;;;;;;;25.20;22.60;;;4.10;93.20;;;;;;5049507;28;20437;-89
2023/01/24 11:27:14;;;;;;;25.95;23.35;;;4.10;92.60;;;;;;5067569;28;20420;-89
2023/01/24 11:29:39;;;;;;;26.33;23.63;;;4.10;92.90;;;;;;5067749;28;20473;-88
2023/01/24 11:32:30;;;;;;;24.47;22.07;;;4.20;92.90;;;;;;5067742;28;20986;-88
2023/01/24 11:35:02;;;;;;;24.73;22.20;;;4.10;92.60;;;;;;5048169;28;20423;-88
2023/01/24 11:38:00;;;;;;;25.20;22.70;;;4.10;92.90;;;;;;5068470;28;20426;-88
2023/01/24 11:40:57;;;;;;;23.70;21.33;;;4.10;93.00;;;;;;5049205;28;20445;-88
2023/01/24 11:43:35;;;;;;;24.38;21.98;;;4.10;92.70;;;;;;5065939;28;20462;-89
2023/01/24 11:46:06;;;;;;;23.63;21.23;;;4.10;92.70;;;;;;5069195;28;20458;-89
2023/01/24 11:48:46;;;;;;;24.90;22.40;;;4.20;92.70;;;;;;5067896;28;20407;-91
2023/01/24 11:51:36;;;;;;;23.15;20.75;;;4.20;92.90;;;;;;5067872;28;20431;-91
2023/01/24 11:54:40;;;;;;;23.15;20.85;;;4.20;92.60;;;;;;5049186;28;20436;-89
2023/01/24 11:57:25;;;;;;;22.77;20.48;;;4.20;92.60;;;;;;5046850;28;20416;-88
2023/01/24 12:00:24;;;;;;;22.52;20.23;;;4.20;92.40;;;;;;5051162;28;20435;-87
2023/01/24 12:03:08;;;;;;;23.17;20.70;;;4.20;92.70;;;;;;5050067;28;20424;-88
2023/01/24 12:05:58;;;;;;;24.17;21.77;;;4.20;92.10;;;;;;5066683;28;20431;-89
2023/01/24 12:08:46;;;;;;;24.02;21.63;;;4.20;92.00;;;;;;5050975;28;20416;-88
2023/01/24 12:11:29;;;;;;;23.85;21.42;;;4.10;92.40;;;;;;5067811;28;20495;-88
2023/01/24 12:14:05;;;;;;;24.80;22.30;;;4.10;92.50;;;;;;5066346;28;20416;-90
2023/01/24 12:17:02;;;;;;;25.07;22.47;;;4.10;92.50;;;;;;5067662;28;20415;-88
2023/01/24 12:19:33;;;;;;;24.48;22.08;;;4.10;92.70;;;;;;5067132;28;20412;-89
2023/01/24 12:21:59;;;;;;;25.13;22.60;;;4.10;92.80;;;;;;5067417;28;20922;-88
2023/01/24 12:24:31;;;;;;;23.63;21.23;;;4.10;92.60;;;;;;5066900;28;20435;-88
2023/01/24 12:27:02;;;;;;;24.55;21.85;;;4.10;92.50;;;;;;5066627;28;20763;-87
2023/01/24 12:29:38;;;;;;;25.52;22.92;;;4.20;92.60;;;;;;5067217;28;20404;-86
2023/01/24 12:32:17;;;;;;;23.00;20.70;;;4.10;92.90;;;;;;5064101;28;20446;-90
2023/01/24 12:34:50;;;;;;;23.30;21.00;;;4.10;92.50;;;;;;5066972;28;20507;-88
2023/01/24 12:37:19;;;;;;;23.95;21.52;;;4.10;92.40;;;;;;5064776;28;20415;-88
2023/01/24 12:39:56;;;;;;;23.02;20.65;;;4.10;92.90;;;;;;5065139;28;20411;-88
2023/01/24 12:43:03;;;;;;;24.35;21.85;;;4.10;92.70;;;;;;5065363;28;20922;-88
2023/01/24 12:45:40;;;;;;;23.20;20.80;;;4.10;93.10;;;;;;5065650;28;20432;-87
2023/01/24 12:48:25;;;;;;;23.17;20.77;;;4.10;92.70;;;;;;5063524;28;20411;-89
2023/01/24 12:51:23;;;;;;;23.45;20.98;;;4.20;92.70;;;;;;5048593;28;20411;-87
2023/01/24 12:54:06;;;;;;;22.58;20.27;;;4.10;92.90;;;;;;5046794;28;20446;-88
2023/01/24 12:56:46;;;;;;;21.58;19.38;;;4.20;92.70;;;;;;5048579;28;20426;-88
2023/01/24 12:59:13;;;;;;;23.17;20.88;;;4.20;92.50;;;;;;5066016;28;20430;-87
2023/01/24 13:01:46;;;;;;;20.52;18.42;;;4.10;92.80;;;;;;5048696;28;20410;-88
2023/01/24 13:04:30;;;;;;;20.37;18.27;;;4.20;92.50;;;;;;5066223;28;20479;-89
2023/01/24 13:07:16;;;;;;;20.73;18.63;;;4.20;92.50;;;;;;5055286;28;20458;-88
2023/01/24 13:09:53;;;;;;;21.30;19.20;;;4.20;92.50;;;;;;5048539;28;20415;-88
2023/01/24 13:12:23;;;;;;;21.10;19.00;;;4.20;92.40;;;;;;5049172;28;20522;-87
2023/01/24 13:15:01;;;;;;;22.08;19.88;;;4.20;92.30;;;;;;5048633;28;20886;-88
2023/01/24 13:17:55;;;;;;;21.45;19.25;;;4.20;92.60;;;;;;5049707;28;20404;-87
2023/01/24 13:20:57;;;;;;;20.50;18.48;;;4.20;92.50;;;;;;5065418;28;20415;-89
2023/01/24 13:23:42;;;;;;;21.60;19.40;;;4.20;92.30;;;;;;5064968;28;20518;-88
2023/01/24 13:26:35;;;;;;;19.27;17.27;;;4.20;92.60;;;;;;5049584;28;20423;-87
2023/01/24 13:29:01;;;;;;;21.17;18.25;;;4.20;92.50;;;;;;5048301;28;20445;-89